Victoria Beach, Canada
Current Conditions -  °F | °C
As of 12:00 PM on Friday 24 Oct 2014 (Local Time) from CYWG Reporting Station
Broken Clouds Broken Clouds  
Wind Chill: 55°   Ceiling: 23000
Heat Index: 55°   Visibility: 15mi
Dew Point: 43°   Wind: 13mph
Humidity: 63%   Direction: 220°SW
Pressure: 29.64"   Gusts: 21mph
Location:  50.7°N, 96.53°W
Report Text: CYWG 241700Z 22011G18KT 15SM SCT120 BKN230 13/06 A2964 RMK AC4CI3 SLP042 DENSITY ALT 1000FT
Loading
Personal Weather Stations






























Interactive Weather Map
Tropical Storm Tracking
New forecast layout! Learn more

10-Day Weather Forecast

Advertisements
Track Severe Weather on mobile